Time;durP1;ratioP1;P1;durP2;ratioP2;P2;SDS_P1;SDS_P2;PMS_P1;PMS_P2;Temp;Humidity;BMP_temperature;BMP_pressure;BME280_temperature;BME280_humidity;BME280_pressure;Samples;Min_cycle;Max_cycle;Signal;HPM_P1;HPM_P2
2022/08/20 07:20:10;;;;;;;32.13;21.23;;;;;;;;;;6154871;28;20086;-84
2022/08/20 07:23:10;;;;;;;29.70;19.95;;;;;;;;;;6166374;28;20037;-84
2022/08/20 07:26:12;;;;;;;32.30;18.70;;;;;;;;;;6153009;28;20057;-84
2022/08/20 07:29:12;;;;;;;31.60;18.35;;;;;;;;;;6170651;28;20031;-84
2022/08/20 07:35:31;;;;;;;26.17;16.35;;;;;;;;;;6166761;28;20019;-84
2022/08/20 07:38:32;;;;;;;21.57;13.43;;;;;;;;;;6161296;28;20433;-84
2022/08/20 07:41:32;;;;;;;22.15;15.38;;;;;;;;;;6164206;28;20095;-84
2022/08/20 07:44:32;;;;;;;22.80;13.80;;;;;;;;;;6166633;28;20022;-84
2022/08/20 07:47:34;;;;;;;21.60;15.43;;;;;;;;;;6153268;28;20034;-85
2022/08/20 07:50:35;;;;;;;21.33;15.20;;;;;;;;;;6140065;28;20173;-85
2022/08/20 07:53:36;;;;;;;22.87;17.47;;;;;;;;;;6165802;28;20030;-85
2022/08/20 07:56:36;;;;;;;24.60;15.70;;;;;;;;;;6150795;28;20021;-85
2022/08/20 07:59:37;;;;;;;27.17;18.30;;;;;;;;;;6160115;28;20015;-84
2022/08/20 08:02:38;;;;;;;21.45;15.82;;;;;;;;;;6164529;28;20011;-84
2022/08/20 08:05:42;;;;;;;23.85;16.05;;;;;;;;;;6150913;28;20007;-85
2022/08/20 08:08:42;;;;;;;25.65;16.98;;;;;;;;;;6167283;28;20023;-85
2022/08/20 08:11:50;;;;;;;26.13;18.77;;;;;;;;;;6168313;28;20022;-85
2022/08/20 08:14:50;;;;;;;32.35;21.85;;;;;;;;;;6140780;28;20023;-85
2022/08/20 08:17:51;;;;;;;22.70;17.30;;;;;;;;;;6151971;28;20050;-85
2022/08/20 08:20:52;;;;;;;25.48;17.85;;;;;;;;;;6158028;28;20101;-85
2022/08/20 08:23:53;;;;;;;27.92;17.02;;;;;;;;;;6142815;28;20297;-85
2022/08/20 08:26:53;;;;;;;34.97;24.50;;;;;;;;;;6166160;28;20317;-87
2022/08/20 08:29:53;;;;;;;36.88;24.55;;;;;;;;;;6150774;28;20268;-90
2022/08/20 08:36:13;;;;;;;34.33;25.63;;;;;;;;;;6165654;28;20047;-90
2022/08/20 08:39:15;;;;;;;33.33;26.10;;;;;;;;;;6167817;28;20065;-90
2022/08/20 08:42:27;;;;;;;39.45;27.65;;;;;;;;;;6147188;28;20023;-90
2022/08/20 08:45:42;;;;;;;35.70;27.48;;;;;;;;;;6158312;28;20018;-90
2022/08/20 08:48:44;;;;;;;41.15;27.42;;;;;;;;;;6149725;28;20035;-89
2022/08/20 08:52:00;;;;;;;39.15;27.23;;;;;;;;;;6150638;28;20105;-89
2022/08/20 08:55:02;;;;;;;39.20;27.60;;;;;;;;;;6151332;28;20066;-89
2022/08/20 08:58:03;;;;;;;38.42;26.17;;;;;;;;;;6150805;28;20027;-89
2022/08/20 09:01:11;;;;;;;40.03;28.10;;;;;;;;;;6149449;28;20015;-89
2022/08/20 09:04:15;;;;;;;38.92;28.20;;;;;;;;;;6142537;28;20357;-89
2022/08/20 09:07:23;;;;;;;47.88;29.27;;;;;;;;;;6144107;28;20121;-89
2022/08/20 09:10:28;;;;;;;43.58;28.55;;;;;;;;;;6139414;28;20478;-89
2022/08/20 09:13:30;;;;;;;40.08;26.52;;;;;;;;;;6150448;28;20027;-88
2022/08/20 09:16:30;;;;;;;35.33;21.37;;;;;;;;;;6149088;28;20023;-88
2022/08/20 09:19:31;;;;;;;39.70;25.77;;;;;;;;;;6161467;28;20051;-87
2022/08/20 09:22:32;;;;;;;43.38;28.65;;;;;;;;;;6147747;28;20023;-86
2022/08/20 09:25:32;;;;;;;57.25;30.50;;;;;;;;;;6140722;28;20030;-86
2022/08/20 09:28:32;;;;;;;46.63;29.93;;;;;;;;;;6155096;28;20031;-86
2022/08/20 09:31:33;;;;;;;42.93;28.60;;;;;;;;;;6146333;28;20038;-86
2022/08/20 09:34:37;;;;;;;33.90;24.83;;;;;;;;;;6145774;28;20019;-86
2022/08/20 09:37:37;;;;;;;43.30;28.75;;;;;;;;;;6142744;28;20596;-86
2022/08/20 09:40:38;;;;;;;39.00;27.07;;;;;;;;;;6140887;28;20035;-86
2022/08/20 09:43:38;;;;;;;40.83;27.17;;;;;;;;;;6155511;28;20473;-86
2022/08/20 09:46:38;;;;;;;40.27;25.63;;;;;;;;;;6145587;28;20037;-86
2022/08/20 09:49:39;;;;;;;57.08;30.50;;;;;;;;;;6144695;28;20018;-85
2022/08/20 09:52:45;;;;;;;47.30;30.38;;;;;;;;;;6141050;28;20466;-86
2022/08/20 09:55:47;;;;;;;40.63;27.05;;;;;;;;;;6147975;28;20800;-85
2022/08/20 09:58:49;;;;;;;55.88;27.58;;;;;;;;;;6132692;28;20380;-85
2022/08/20 10:01:49;;;;;;;45.20;29.52;;;;;;;;;;6151557;28;20026;-86
2022/08/20 10:04:50;;;;;;;48.57;28.80;;;;;;;;;;6147078;28;20046;-86
2022/08/20 10:07:50;;;;;;;52.58;32.42;;;;;;;;;;6141929;28;20020;-86
2022/08/20 10:10:51;;;;;;;40.27;23.10;;;;;;;;;;6156838;28;20234;-87
2022/08/20 10:13:51;;;;;;;37.67;22.47;;;;;;;;;;6141669;28;20031;-86
2022/08/20 10:16:55;;;;;;;32.83;20.77;;;;;;;;;;6135181;28;20023;-86
2022/08/20 10:19:55;;;;;;;33.75;20.35;;;;;;;;;;6133944;28;20081;-86
2022/08/20 10:22:55;;;;;;;33.60;18.73;;;;;;;;;;6139173;28;20019;-86
2022/08/20 10:25:56;;;;;;;36.20;21.30;;;;;;;;;;6157381;28;20370;-86
2022/08/20 10:28:56;;;;;;;37.03;21.47;;;;;;;;;;6158240;28;20390;-86
2022/08/20 10:31:56;;;;;;;33.63;20.40;;;;;;;;;;6142453;28;20047;-87
2022/08/20 10:34:57;;;;;;;40.40;20.13;;;;;;;;;;6137250;28;20015;-87
2022/08/20 10:37:57;;;;;;;31.33;18.90;;;;;;;;;;6133986;28;20030;-87
2022/08/20 10:40:57;;;;;;;31.02;18.42;;;;;;;;;;6141525;28;20106;-87
2022/08/20 10:43:57;;;;;;;30.40;16.57;;;;;;;;;;6159574;28;20015;-87
2022/08/20 10:46:57;;;;;;;22.90;15.03;;;;;;;;;;6162551;28;20378;-87
2022/08/20 10:49:59;;;;;;;20.67;14.13;;;;;;;;;;6147430;28;20096;-87
2022/08/20 10:52:59;;;;;;;28.33;12.75;;;;;;;;;;6144524;28;20030;-87
2022/08/20 10:56:00;;;;;;;26.97;12.50;;;;;;;;;;6149536;28;20114;-88
2022/08/20 10:59:00;;;;;;;27.33;13.27;;;;;;;;;;6152277;28;20074;-88
2022/08/20 11:02:00;;;;;;;23.43;13.23;;;;;;;;;;6152281;28;20422;-87
2022/08/20 11:05:00;;;;;;;29.33;15.63;;;;;;;;;;6149251;28;20042;-87
2022/08/20 11:08:01;;;;;;;26.53;13.93;;;;;;;;;;6147830;28;20624;-86
2022/08/20 11:11:03;;;;;;;26.80;13.55;;;;;;;;;;6148412;28;20418;-88
2022/08/20 11:14:03;;;;;;;24.92;14.60;;;;;;;;;;6150582;28;20033;-88
2022/08/20 11:17:04;;;;;;;24.57;15.10;;;;;;;;;;6149636;28;20053;-89
2022/08/20 11:20:06;;;;;;;24.00;14.37;;;;;;;;;;6150397;28;20050;-89
2022/08/20 11:23:07;;;;;;;25.52;14.73;;;;;;;;;;6149902;28;20451;-89
2022/08/20 11:26:07;;;;;;;22.33;13.03;;;;;;;;;;6149774;28;20027;-89
2022/08/20 11:29:07;;;;;;;24.47;13.20;;;;;;;;;;6150556;28;20514;-89
2022/08/20 11:32:07;;;;;;;26.00;14.67;;;;;;;;;;6150505;28;20023;-88
2022/08/20 11:35:08;;;;;;;24.90;13.87;;;;;;;;;;6144913;28;20022;-89
2022/08/20 11:38:08;;;;;;;24.47;13.83;;;;;;;;;;6141901;28;20142;-89
2022/08/20 11:41:08;;;;;;;29.07;13.63;;;;;;;;;;6169181;28;20027;-88
2022/08/20 11:44:09;;;;;;;20.83;11.87;;;;;;;;;;6169523;28;20544;-88
2022/08/20 11:47:18;;;;;;;25.20;13.00;;;;;;;;;;6148773;28;20031;-87
2022/08/20 11:50:20;;;;;;;20.73;12.00;;;;;;;;;;6147367;28;20445;-87
2022/08/20 11:53:20;;;;;;;24.63;12.32;;;;;;;;;;6160071;28;20373;-87
2022/08/20 11:56:20;;;;;;;23.35;10.77;;;;;;;;;;6166232;28;20065;-87
2022/08/20 11:59:20;;;;;;;25.70;11.73;;;;;;;;;;6149759;28;20026;-87
2022/08/20 12:02:21;;;;;;;19.77;10.60;;;;;;;;;;6149020;28;20027;-87
2022/08/20 12:05:21;;;;;;;20.57;10.70;;;;;;;;;;6148574;28;20069;-88
2022/08/20 12:08:21;;;;;;;23.07;11.17;;;;;;;;;;6165135;28;20506;-88
2022/08/20 12:11:21;;;;;;;22.52;12.40;;;;;;;;;;6149565;28;20593;-88
2022/08/20 12:14:21;;;;;;;18.80;11.85;;;;;;;;;;6148915;28;20085;-88
2022/08/20 12:17:23;;;;;;;19.77;12.65;;;;;;;;;;6149201;28;20023;-88
2022/08/20 12:20:23;;;;;;;15.85;10.73;;;;;;;;;;6148175;28;20015;-87
2022/08/20 12:23:24;;;;;;;24.27;11.77;;;;;;;;;;6149159;28;20043;-87
2022/08/20 12:26:24;;;;;;;20.00;12.93;;;;;;;;;;6148406;28;20371;-87
2022/08/20 12:29:26;;;;;;;20.33;11.80;;;;;;;;;;6150260;28;20112;-87
2022/08/20 12:32:27;;;;;;;22.73;13.13;;;;;;;;;;6147072;28;20023;-87
2022/08/20 12:35:28;;;;;;;17.95;11.15;;;;;;;;;;6142398;28;20081;-87
2022/08/20 12:38:28;;;;;;;18.55;11.30;;;;;;;;;;6147643;28;20438;-87
2022/08/20 12:41:28;;;;;;;17.93;10.53;;;;;;;;;;6147485;28;20216;-87
2022/08/20 12:44:30;;;;;;;22.27;12.50;;;;;;;;;;6148931;28;20018;-87
2022/08/20 12:47:31;;;;;;;16.48;11.57;;;;;;;;;;6166287;28;20058;-87
2022/08/20 12:50:32;;;;;;;24.23;13.40;;;;;;;;;;6148651;28;20054;-87
2022/08/20 12:53:33;;;;;;;18.73;11.93;;;;;;;;;;6148038;28;20029;-87
2022/08/20 12:56:33;;;;;;;16.20;11.63;;;;;;;;;;6148224;28;20109;-86
2022/08/20 12:59:33;;;;;;;16.83;11.87;;;;;;;;;;6143907;28;20027;-88
2022/08/20 13:02:33;;;;;;;19.20;11.40;;;;;;;;;;6146936;28;20027;-87
2022/08/20 13:05:34;;;;;;;17.87;11.03;;;;;;;;;;6147214;28;20590;-88
2022/08/20 13:08:34;;;;;;;15.37;10.30;;;;;;;;;;6148000;28;20023;-87
2022/08/20 13:11:34;;;;;;;24.20;12.93;;;;;;;;;;6148056;28;20266;-87
2022/08/20 13:14:35;;;;;;;22.77;11.27;;;;;;;;;;6147455;28;20113;-87
2022/08/20 13:17:36;;;;;;;18.77;11.75;;;;;;;;;;6148088;28;20716;-87
2022/08/20 13:20:36;;;;;;;18.30;12.37;;;;;;;;;;6165167;28;20023;-87
2022/08/20 13:23:36;;;;;;;23.93;11.70;;;;;;;;;;6166078;28;20110;-87
2022/08/20 13:26:37;;;;;;;17.37;11.93;;;;;;;;;;6149185;28;20446;-87
2022/08/20 13:29:37;;;;;;;18.40;12.18;;;;;;;;;;6164196;28;20018;-88
2022/08/20 13:32:38;;;;;;;22.67;13.25;;;;;;;;;;6144757;28;20077;-87
2022/08/20 13:35:38;;;;;;;19.57;14.33;;;;;;;;;;6154668;28;20045;-88
2022/08/20 13:38:38;;;;;;;25.87;13.73;;;;;;;;;;6147312;28;20026;-87
2022/08/20 13:41:38;;;;;;;32.17;17.07;;;;;;;;;;6161852;28;20011;-87
2022/08/20 13:44:39;;;;;;;23.67;17.40;;;;;;;;;;6148733;28;20853;-87
2022/08/20 13:47:40;;;;;;;26.40;16.77;;;;;;;;;;6146577;28;20030;-87
2022/08/20 13:50:40;;;;;;;;;;;;;;;;;;6165007;28;20035;-87
2022/08/20 13:53:40;;;;;;;33.75;16.42;;;;;;;;;;6164925;28;20046;-87
2022/08/20 13:56:40;;;;;;;22.77;18.60;;;;;;;;;;6148415;28;20085;-87
2022/08/20 13:59:42;;;;;;;30.60;18.60;;;;;;;;;;6165698;28;20034;-87
2022/08/20 14:02:42;;;;;;;30.20;19.38;;;;;;;;;;6166199;28;20106;-87
2022/08/20 14:05:43;;;;;;;36.63;21.17;;;;;;;;;;6148330;28;20026;-87
2022/08/20 14:08:43;;;;;;;36.07;21.97;;;;;;;;;;6166292;28;20019;-86
2022/08/20 14:11:43;;;;;;;42.13;22.57;;;;;;;;;;6165612;28;20077;-86
2022/08/20 14:14:43;;;;;;;36.27;22.87;;;;;;;;;;6146219;28;20131;-85
2022/08/20 14:17:51;;;;;;;38.03;23.13;;;;;;;;;;6147502;28;20040;-86
2022/08/20 14:20:51;;;;;;;34.83;21.15;;;;;;;;;;6164411;28;20352;-86
2022/08/20 14:23:51;;;;;;;37.43;19.70;;;;;;;;;;6164137;28;20078;-86
2022/08/20 14:26:51;;;;;;;39.35;23.55;;;;;;;;;;6165046;28;20375;-88
2022/08/20 14:29:51;;;;;;;45.27;22.10;;;;;;;;;;6148046;28;20165;-87
2022/08/20 14:32:52;;;;;;;36.20;22.73;;;;;;;;;;6144866;28;20019;-88
2022/08/20 14:35:53;;;;;;;51.17;26.07;;;;;;;;;;6147873;28;20029;-88
2022/08/20 14:38:53;;;;;;;48.80;24.33;;;;;;;;;;6148114;28;20025;-88
2022/08/20 14:41:53;;;;;;;54.53;25.63;;;;;;;;;;6143373;28;20022;-87
2022/08/20 14:44:54;;;;;;;65.53;27.88;;;;;;;;;;6148453;28;20014;-88
2022/08/20 14:47:56;;;;;;;65.53;30.03;;;;;;;;;;6148611;28;20023;-88
2022/08/20 14:50:58;;;;;;;63.05;28.52;;;;;;;;;;6145386;28;20027;-88
2022/08/20 14:53:58;;;;;;;46.95;23.30;;;;;;;;;;6146781;28;20015;-87
2022/08/20 14:56:58;;;;;;;47.93;22.53;;;;;;;;;;6148217;28;20015;-87
2022/08/20 14:59:58;;;;;;;56.73;24.70;;;;;;;;;;6139413;28;20046;-88
2022/08/20 15:02:59;;;;;;;45.37;21.37;;;;;;;;;;6145275;28;20033;-87
2022/08/20 15:05:59;;;;;;;58.23;23.70;;;;;;;;;;6166424;28;20105;-88
2022/08/20 15:08:59;;;;;;;49.73;25.43;;;;;;;;;;6143905;28;20529;-88
2022/08/20 15:11:59;;;;;;;39.23;23.73;;;;;;;;;;6144022;28;20459;-87
2022/08/20 15:15:01;;;;;;;52.77;24.23;;;;;;;;;;6149000;28;20397;-87
2022/08/20 15:18:02;;;;;;;52.17;23.88;;;;;;;;;;6146160;28;20065;-88
2022/08/20 15:21:02;;;;;;;51.03;22.25;;;;;;;;;;6147255;28;20122;-88
2022/08/20 15:24:02;;;;;;;44.63;22.03;;;;;;;;;;6143776;28;20511;-87
2022/08/20 15:27:17;;;;;;;48.50;21.03;;;;;;;;;;6138519;28;20066;-87
2022/08/20 15:30:19;;;;;;;52.17;20.67;;;;;;;;;;6147625;28;20430;-87
2022/08/20 15:33:20;;;;;;;47.58;20.55;;;;;;;;;;6160581;28;20766;-85
2022/08/20 15:36:20;;;;;;;50.30;21.17;;;;;;;;;;6159579;28;20086;-85
2022/08/20 15:39:20;;;;;;;48.60;19.80;;;;;;;;;;6162713;28;20509;-84
2022/08/20 15:42:21;;;;;;;59.47;20.37;;;;;;;;;;6160792;28;20023;-85
2022/08/20 15:45:21;;;;;;;35.90;19.05;;;;;;;;;;6148146;28;20033;-84
2022/08/20 15:48:29;;;;;;;47.27;22.23;;;;;;;;;;6161361;28;20042;-85
2022/08/20 15:51:35;;;;;;;59.80;22.58;;;;;;;;;;6151358;28;20018;-85
2022/08/20 15:54:36;;;;;;;46.95;22.98;;;;;;;;;;6169211;28;20758;-85
2022/08/20 15:57:42;;;;;;;51.07;23.50;;;;;;;;;;6150103;28;20045;-85
2022/08/20 16:00:49;;;;;;;49.45;21.38;;;;;;;;;;6168800;28;20032;-85
2022/08/20 16:04:01;;;;;;;60.90;22.92;;;;;;;;;;6168328;28;20552;-85
2022/08/20 16:07:06;;;;;;;51.70;21.02;;;;;;;;;;6163652;28;20046;-86
2022/08/20 16:10:15;;;;;;;53.60;21.65;;;;;;;;;;6146489;28;20033;-85
2022/08/20 16:13:39;;;;;;;51.45;22.70;;;;;;;;;;6164863;28;20631;-85
2022/08/20 16:16:44;;;;;;;44.78;22.70;;;;;;;;;;6097003;28;20035;-85
2022/08/20 16:20:04;;;;;;;56.03;23.15;;;;;;;;;;6140031;28;20046;-85
2022/08/20 16:23:05;;;;;;;55.10;20.88;;;;;;;;;;6157895;28;20031;-84
2022/08/20 16:26:24;;;;;;;55.05;21.55;;;;;;;;;;6136302;28;20736;-84
2022/08/20 16:29:30;;;;;;;46.03;22.20;;;;;;;;;;6153144;28;20426;-84
2022/08/20 16:32:48;;;;;;;49.10;22.77;;;;;;;;;;6152468;28;20015;-84
2022/08/20 16:36:00;;;;;;;40.15;20.08;;;;;;;;;;6152180;28;20031;-84
2022/08/20 16:39:03;;;;;;;40.83;20.45;;;;;;;;;;6136167;28;20053;-84
2022/08/20 16:42:07;;;;;;;52.92;22.25;;;;;;;;;;6136025;28;20623;-84
2022/08/20 16:45:10;;;;;;;58.38;23.27;;;;;;;;;;6155052;28;20020;-84
2022/08/20 16:48:10;;;;;;;51.40;22.13;;;;;;;;;;6153986;28;20158;-84
2022/08/20 16:51:15;;;;;;;41.93;22.60;;;;;;;;;;6140168;28;20064;-84
2022/08/20 16:54:16;;;;;;;49.30;21.60;;;;;;;;;;6154545;28;20441;-84
2022/08/20 16:57:17;;;;;;;60.90;22.63;;;;;;;;;;6158105;28;20030;-84
2022/08/20 17:00:33;;;;;;;49.40;22.15;;;;;;;;;;6138168;28;20078;-84
2022/08/20 17:03:34;;;;;;;46.38;22.15;;;;;;;;;;6139970;28;20035;-84
2022/08/20 17:06:42;;;;;;;47.95;23.38;;;;;;;;;;6166045;28;20023;-84
2022/08/20 17:09:42;;;;;;;65.10;27.20;;;;;;;;;;6165572;28;20666;-84
2022/08/20 17:12:43;;;;;;;64.72;26.35;;;;;;;;;;6146665;28;20085;-84
2022/08/20 17:15:51;;;;;;;69.03;29.80;;;;;;;;;;6149092;28;20063;-84
2022/08/20 17:18:52;;;;;;;68.68;29.48;;;;;;;;;;6133287;28;20941;-84
2022/08/20 17:21:53;;;;;;;68.40;29.02;;;;;;;;;;6137824;28;20023;-84
2022/08/20 17:24:54;;;;;;;70.75;30.35;;;;;;;;;;6135215;28;20058;-84
2022/08/20 17:27:55;;;;;;;70.07;27.60;;;;;;;;;;6137263;28;20035;-84
2022/08/20 17:30:55;;;;;;;84.43;27.70;;;;;;;;;;6140896;28;20011;-84
2022/08/20 17:33:55;;;;;;;79.17;26.23;;;;;;;;;;6133958;28;20484;-84
2022/08/20 17:36:57;;;;;;;44.23;20.87;;;;;;;;;;6142073;28;20563;-84
2022/08/20 17:40:24;;;;;;;61.50;23.60;;;;;;;;;;6142496;28;20048;-85
2022/08/20 17:43:27;;;;;;;48.53;23.80;;;;;;;;;;6128364;28;20027;-85
2022/08/20 17:46:29;;;;;;;54.45;23.77;;;;;;;;;;6129735;28;20035;-85
2022/08/20 17:49:34;;;;;;;62.03;25.50;;;;;;;;;;6129121;28;20543;-84
2022/08/20 17:52:38;;;;;;;64.60;26.40;;;;;;;;;;6134036;28;20027;-84
2022/08/20 17:55:39;;;;;;;61.17;23.80;;;;;;;;;;6130068;28;20034;-84
2022/08/20 17:58:46;;;;;;;64.68;24.85;;;;;;;;;;6143228;28;20634;-84
2022/08/20 18:01:46;;;;;;;65.93;24.48;;;;;;;;;;6141057;28;20604;-84
2022/08/20 18:04:47;;;;;;;65.13;25.00;;;;;;;;;;6141895;28;20023;-84
2022/08/20 18:08:08;;;;;;;65.22;24.15;;;;;;;;;;6138771;28;20031;-84
2022/08/20 18:11:11;;;;;;;72.13;24.90;;;;;;;;;;6134436;28;20027;-84
2022/08/20 18:14:20;;;;;;;70.90;26.08;;;;;;;;;;6137934;28;20035;-84
2022/08/20 18:17:21;;;;;;;69.80;26.17;;;;;;;;;;6137686;28;20029;-84
2022/08/20 18:20:30;;;;;;;56.50;23.33;;;;;;;;;;6139823;28;20047;-84
2022/08/20 18:23:40;;;;;;;60.80;25.42;;;;;;;;;;6138170;28;20020;-85
2022/08/20 18:26:47;;;;;;;76.85;28.95;;;;;;;;;;6141203;28;20035;-85
2022/08/20 18:29:57;;;;;;;73.32;27.60;;;;;;;;;;6139943;28;20019;-85
2022/08/20 18:33:03;;;;;;;68.72;28.58;;;;;;;;;;6137826;28;20082;-84
2022/08/20 18:36:19;;;;;;;68.20;29.02;;;;;;;;;;6139898;28;20482;-84
2022/08/20 18:39:38;;;;;;;74.82;27.65;;;;;;;;;;6140170;28;20082;-85
2022/08/20 18:42:38;;;;;;;76.95;31.20;;;;;;;;;;6136571;28;20023;-84
2022/08/20 18:45:39;;;;;;;84.27;46.17;;;;;;;;;;6128988;28;20023;-85
2022/08/20 18:48:49;;;;;;;69.03;29.87;;;;;;;;;;6127415;28;20016;-85
2022/08/20 18:51:49;;;;;;;69.63;27.35;;;;;;;;;;6131614;28;20028;-85
2022/08/20 18:54:51;;;;;;;64.00;23.83;;;;;;;;;;6135520;28;20046;-85
2022/08/20 18:57:58;;;;;;;53.65;25.08;;;;;;;;;;6128721;28;20026;-85
2022/08/20 19:01:00;;;;;;;64.20;23.58;;;;;;;;;;6126173;29;20027;-85
2022/08/20 19:04:01;;;;;;;65.38;24.00;;;;;;;;;;6129454;28;20023;-85
2022/08/20 19:07:03;;;;;;;60.25;24.33;;;;;;;;;;6130585;28;20386;-85
2022/08/20 19:10:13;;;;;;;54.08;23.85;;;;;;;;;;6126849;28;20154;-85
2022/08/20 19:13:32;;;;;;;72.65;26.48;;;;;;;;;;6129345;28;20741;-85
2022/08/20 19:16:39;;;;;;;61.45;24.30;;;;;;;;;;6135297;28;20031;-85
2022/08/20 19:19:39;;;;;;;56.72;23.65;;;;;;;;;;6149891;28;20056;-85
2022/08/20 19:22:41;;;;;;;69.93;26.73;;;;;;;;;;6143716;28;20086;-85
2022/08/20 19:25:52;;;;;;;63.92;26.10;;;;;;;;;;6157791;28;20023;-85
2022/08/20 19:28:55;;;;;;;77.07;26.05;;;;;;;;;;6133944;28;20034;-85
2022/08/20 19:31:57;;;;;;;83.95;27.77;;;;;;;;;;6155345;28;20019;-85
2022/08/20 19:34:59;;;;;;;95.32;29.42;;;;;;;;;;6157943;28;20103;-85
2022/08/20 19:38:01;;;;;;;85.38;28.40;;;;;;;;;;6139881;28;20054;-85
2022/08/20 19:41:01;;;;;;;92.60;29.05;;;;;;;;;;6154427;28;20026;-85
2022/08/20 19:44:01;;;;;;;81.40;30.27;;;;;;;;;;6149632;28;20026;-85
2022/08/20 19:47:02;;;;;;;89.60;30.23;;;;;;;;;;6165039;28;20022;-86
2022/08/20 19:50:05;;;;;;;88.97;29.33;;;;;;;;;;6146634;28;20152;-85
2022/08/20 19:53:16;;;;;;;91.68;28.52;;;;;;;;;;6146468;28;20117;-85
2022/08/20 19:56:24;;;;;;;90.57;27.40;;;;;;;;;;6166932;28;20412;-86
2022/08/20 19:59:25;;;;;;;93.35;33.70;;;;;;;;;;6167806;28;20042;-86
2022/08/20 20:02:27;;;;;;;85.80;31.07;;;;;;;;;;6166553;28;20471;-86
2022/08/20 20:05:27;;;;;;;85.32;30.52;;;;;;;;;;6168709;28;20410;-86
2022/08/20 20:08:37;;;;;;;96.63;32.37;;;;;;;;;;6150310;28;20041;-85
2022/08/20 20:11:44;;;;;;;78.82;29.85;;;;;;;;;;6174064;28;20027;-85
2022/08/20 20:14:45;;;;;;;90.32;31.38;;;;;;;;;;6145619;28;20030;-85
2022/08/20 20:17:45;;;;;;;92.10;31.53;;;;;;;;;;6150031;28;20394;-85
2022/08/20 20:20:51;;;;;;;84.67;28.77;;;;;;;;;;6147313;28;20015;-86
2022/08/20 20:23:53;;;;;;;92.53;29.85;;;;;;;;;;6163088;28;20015;-85
2022/08/20 20:26:54;;;;;;;85.93;34.65;;;;;;;;;;6137594;28;20019;-86
2022/08/20 20:29:58;;;;;;;96.57;32.77;;;;;;;;;;6143533;28;20050;-85
2022/08/20 20:33:00;;;;;;;100.40;36.05;;;;;;;;;;6135314;28;20089;-86
2022/08/20 20:36:00;;;;;;;;;;;;;;;;;;6148236;28;20014;-85
2022/08/20 20:39:05;;;;;;;105.65;31.50;;;;;;;;;;6154066;28;19918;-85
2022/08/20 20:42:07;;;;;;;97.75;32.67;;;;;;;;;;6146778;28;20050;-85
2022/08/20 20:45:07;;;;;;;;;;;;;;;;;;6141380;28;20023;-85
2022/08/20 20:48:18;;;;;;;94.03;29.95;;;;;;;;;;6146445;28;19910;-86
2022/08/20 20:51:24;;;;;;;89.07;32.45;;;;;;;;;;6147463;28;20076;-85
2022/08/20 20:54:29;;;;;;;87.88;30.50;;;;;;;;;;6145527;28;20041;-85
2022/08/20 20:57:29;;;;;;;88.60;32.70;;;;;;;;;;6155808;28;20023;-85
2022/08/20 21:00:31;;;;;;;102.87;32.37;;;;;;;;;;6141032;28;20026;-85
2022/08/20 21:03:31;;;;;;;95.97;32.60;;;;;;;;;;6149300;28;20074;-85
2022/08/20 21:06:31;;;;;;;89.30;30.80;;;;;;;;;;6163165;28;20688;-85
2022/08/20 21:09:33;;;;;;;100.73;30.40;;;;;;;;;;6159857;28;20016;-85
2022/08/20 21:12:34;;;;;;;89.07;29.75;;;;;;;;;;6158569;28;20455;-85
2022/08/20 21:15:35;;;;;;;88.57;30.47;;;;;;;;;;6160942;28;20034;-85
2022/08/20 21:18:35;;;;;;;105.47;32.72;;;;;;;;;;6159163;28;20051;-85
2022/08/20 21:21:37;;;;;;;100.07;30.10;;;;;;;;;;6154051;28;20030;-85
2022/08/20 21:24:37;;;;;;;98.90;30.88;;;;;;;;;;6139007;28;20066;-85
2022/08/20 21:27:38;;;;;;;89.27;32.23;;;;;;;;;;6143187;28;20023;-85
2022/08/20 21:30:38;;;;;;;104.70;32.50;;;;;;;;;;6159409;28;20110;-85
2022/08/20 21:33:38;;;;;;;103.57;31.60;;;;;;;;;;6165414;28;20081;-85
2022/08/20 21:36:39;;;;;;;88.97;28.87;;;;;;;;;;6156101;28;20066;-85
2022/08/20 21:39:40;;;;;;;95.37;30.53;;;;;;;;;;6139733;28;20057;-85
2022/08/20 21:42:41;;;;;;;92.23;31.47;;;;;;;;;;6163375;28;20019;-85
2022/08/20 21:45:41;;;;;;;92.05;30.08;;;;;;;;;;6159135;28;20015;-85
2022/08/20 21:48:41;;;;;;;82.00;29.83;;;;;;;;;;6142296;28;20029;-85
2022/08/20 21:51:41;;;;;;;79.57;31.67;;;;;;;;;;6161013;28;20367;-85
2022/08/20 21:54:42;;;;;;;93.40;36.07;;;;;;;;;;6159098;28;20577;-85
2022/08/20 21:57:42;;;;;;;89.90;30.50;;;;;;;;;;6151866;28;20054;-85
2022/08/20 22:00:46;;;;;;;100.60;32.97;;;;;;;;;;6154723;28;20117;-85
2022/08/20 22:03:46;;;;;;;88.28;30.50;;;;;;;;;;6142273;28;20015;-85
2022/08/20 22:06:46;;;;;;;94.23;37.07;;;;;;;;;;6157219;28;20034;-84
2022/08/20 22:09:46;;;;;;;97.30;36.23;;;;;;;;;;6167185;28;20134;-85
2022/08/20 22:12:46;;;;;;;98.07;37.33;;;;;;;;;;6166008;28;20023;-85
2022/08/20 22:15:47;;;;;;;82.27;29.03;;;;;;;;;;6166415;28;20018;-85
2022/08/20 22:18:47;;;;;;;107.17;32.87;;;;;;;;;;6148791;28;20661;-85
2022/08/20 22:21:56;;;;;;;69.80;30.40;;;;;;;;;;6149184;28;20022;-85
2022/08/20 22:24:56;;;;;;;86.15;32.10;;;;;;;;;;6148290;28;20481;-85
2022/08/20 22:27:56;;;;;;;93.27;31.87;;;;;;;;;;6162034;28;20026;-85
2022/08/20 22:30:56;;;;;;;94.30;31.30;;;;;;;;;;6160749;28;20050;-85
2022/08/20 22:33:57;;;;;;;93.37;30.23;;;;;;;;;;6148003;28;20062;-85
2022/08/20 22:36:58;;;;;;;84.43;32.93;;;;;;;;;;6160873;28;20027;-85
2022/08/20 22:39:58;;;;;;;75.68;30.77;;;;;;;;;;6157312;28;20183;-85
2022/08/20 22:42:59;;;;;;;77.47;30.35;;;;;;;;;;6144006;28;20042;-85
2022/08/20 22:46:00;;;;;;;82.22;31.27;;;;;;;;;;6146186;28;20368;-85
2022/08/20 22:49:01;;;;;;;80.80;30.35;;;;;;;;;;6160011;28;20029;-85
2022/08/20 22:52:01;;;;;;;93.27;30.50;;;;;;;;;;6167985;28;20029;-85
2022/08/20 22:55:02;;;;;;;88.90;29.20;;;;;;;;;;6174163;28;20284;-85
2022/08/20 22:58:02;;;;;;;94.87;29.73;;;;;;;;;;6174248;28;20038;-84
2022/08/20 23:01:03;;;;;;;82.40;28.23;;;;;;;;;;6168620;28;20390;-85
2022/08/20 23:04:07;;;;;;;73.90;27.02;;;;;;;;;;6157050;28;20038;-84
2022/08/20 23:07:10;;;;;;;75.85;26.42;;;;;;;;;;6169589;28;20029;-84
2022/08/20 23:10:11;;;;;;;84.93;27.10;;;;;;;;;;6173682;28;20149;-85
2022/08/20 23:13:11;;;;;;;74.37;27.17;;;;;;;;;;6173540;28;20526;-85
2022/08/20 23:16:12;;;;;;;74.10;27.43;;;;;;;;;;6171125;28;20038;-84
2022/08/20 23:19:14;;;;;;;76.93;29.73;;;;;;;;;;6153359;28;20056;-85
2022/08/20 23:22:15;;;;;;;69.60;29.95;;;;;;;;;;6171720;28;20077;-84
2022/08/20 23:25:15;;;;;;;74.83;28.97;;;;;;;;;;6173464;28;20023;-84
2022/08/20 23:28:17;;;;;;;64.60;27.20;;;;;;;;;;6168097;28;20031;-85
2022/08/20 23:31:18;;;;;;;71.22;27.55;;;;;;;;;;6167698;28;20027;-85
2022/08/20 23:34:18;;;;;;;73.47;28.63;;;;;;;;;;6154695;28;20686;-85
2022/08/20 23:37:18;;;;;;;69.37;28.57;;;;;;;;;;6174161;28;20058;-85
2022/08/20 23:40:20;;;;;;;68.77;29.27;;;;;;;;;;6173319;28;20019;-85
2022/08/20 23:43:20;;;;;;;65.28;28.83;;;;;;;;;;6149092;28;20019;-85
2022/08/20 23:46:22;;;;;;;85.07;28.93;;;;;;;;;;6172311;28;20023;-85
2022/08/20 23:49:23;;;;;;;66.03;26.55;;;;;;;;;;6172640;28;20061;-85
2022/08/20 23:52:23;;;;;;;71.03;26.97;;;;;;;;;;6155103;28;20506;-85
2022/08/20 23:55:23;;;;;;;82.50;28.13;;;;;;;;;;6168568;28;20029;-84
2022/08/20 23:58:23;;;;;;;75.73;28.07;;;;;;;;;;6172475;28;20630;-85
